Oscar Tybring IV — LAGK — position and weather

sailwx.info

Track history (hours):
 
Tides and Currents Weather Stations Pressure Air Temp Water Temp Dewpoint Dewpoint Depression Visibility Wind Speed Wind Dir Waves Ship Positions

Oscar Tybring IV

Last reported at 2017-Mar-30 08:33 UTC. Time now 2017-Mar-30 08:59 UTC.
Position N 58°06' E 006°48'.

Length 20 m.

Type: SAR. MMSI: 257231500.

Date/timePositionNaut miles runAvg speedWind from/ knotsBaromVisibWave heightAir tempDewpointWater temp
2017-Mar-30 08:33N 58°06' E 006°48'0 0.0
2017-Mar-30 07:33N 58°06' E 006°48'0 0.0
2017-Mar-30 06:34N 58°06' E 006°48'0 0.0
2017-Mar-30 05:34N 58°06' E 006°48'0 0.0
2017-Mar-30 04:33N 58°06' E 006°48'0 0.0
2017-Mar-30 03:34N 58°06' E 006°48'0 0.0
2017-Mar-30 02:34N 58°06' E 006°48'0 0.0
2017-Mar-30 01:33N 58°06' E 006°48'0 0.0
2017-Mar-30 00:33N 58°06' E 006°48'0 0.0
2017-Mar-29 23:33N 58°06' E 006°48'0 0.0
2017-Mar-29 22:34N 58°06' E 006°48'0 0.0
2017-Mar-29 21:34N 58°06' E 006°48'0 0.0
2017-Mar-29 20:33N 58°06' E 006°48'0 0.0
2017-Mar-29 19:34N 58°06' E 006°48'0 0.0
2017-Mar-29 18:34N 58°06' E 006°48'0 0.0
2017-Mar-29 17:33N 58°06' E 006°48'2 1.9
2017-Mar-29 16:33N 58°04' E 006°51'4 4.4
2017-Mar-29 15:33N 58°03' E 006°59'6 6.3
2017-Mar-29 14:33N 58°06' E 006°48'0 0.0
2017-Mar-29 13:34N 58°06' E 006°48'0 0.0
2017-Mar-29 12:33N 58°06' E 006°48'3 2.7
2017-Mar-29 11:34N 58°03' E 006°51'3 2.7
2017-Mar-29 10:33N 58°06' E 006°48'0 0.0
2017-Mar-29 09:33N 58°06' E 006°48'0 0.0
2017-Mar-29 08:33N 58°06' E 006°48'0 0.0
2017-Mar-29 07:33N 58°06' E 006°48'0 0.0
2017-Mar-29 06:33N 58°06' E 006°48'0 0.0
2017-Mar-29 05:33N 58°06' E 006°48'0 0.0
2017-Mar-29 04:33N 58°06' E 006°48'0 0.0
2017-Mar-29 03:33N 58°06' E 006°48'0 0.0
2017-Mar-29 02:33N 58°06' E 006°48'1 1.3
2017-Mar-29 01:34N 58°05' E 006°50'1 1.3
2017-Mar-29 00:33N 58°06' E 006°48'0 0.0
2017-Mar-28 23:33N 58°06' E 006°48'0 0.0
2017-Mar-28 22:33N 58°06' E 006°48'0 0.0
2017-Mar-28 21:33N 58°06' E 006°48'0 0.0
2017-Mar-28 20:33N 58°06' E 006°48'0 0.0
2017-Mar-28 19:33N 58°06' E 006°48'0 0.0
2017-Mar-28 18:33N 58°06' E 006°48'0 0.0
2017-Mar-28 17:33N 58°06' E 006°48'0 0.0
2017-Mar-28 16:33N 58°06' E 006°48'0 0.0
2017-Mar-28 15:33N 58°06' E 006°48'0 0.0
2017-Mar-28 14:33N 58°06' E 006°48'0 0.0
2017-Mar-28 13:33N 58°06' E 006°48'0 0.0
2017-Mar-28 12:33N 58°06' E 006°48'0 0.0
2017-Mar-28 11:33N 58°06' E 006°48'0 0.0
2017-Mar-28 10:33N 58°06' E 006°48'0 0.0
2017-Mar-28 09:33N 58°06' E 006°48'0 0.0
2017-Mar-28 08:33N 58°06' E 006°48'0 0.0
2017-Mar-28 07:33N 58°06' E 006°48'0 0.0
2017-Mar-28 06:33N 58°06' E 006°48'0 0.0
2017-Mar-28 05:33N 58°06' E 006°48'0 0.0
2017-Mar-28 04:33N 58°06' E 006°48'0 0.0
2017-Mar-28 03:33N 58°06' E 006°48'0 0.0
2017-Mar-28 02:33N 58°06' E 006°48'0 0.0
2017-Mar-28 01:33N 58°06' E 006°48'0 0.0
2017-Mar-28 00:33N 58°06' E 006°48'0 0.0
2017-Mar-27 23:33N 58°06' E 006°48'0 0.0
2017-Mar-27 22:33N 58°06' E 006°48'0 0.0
2017-Mar-27 21:33N 58°06' E 006°48'0 0.0
2017-Mar-27 20:33N 58°06' E 006°48'2 1.6
2017-Mar-27 19:33N 58°05' E 006°51'8 8.1
2017-Mar-27 18:32N 58°06' E 006°35'0 0.0
2017-Mar-27 17:33N 58°06' E 006°35'1 1.0
2017-Mar-27 16:34N 58°05' E 006°34'8 7.7
2017-Mar-27 15:33N 58°06' E 006°48'0 0.0
2017-Mar-27 14:33N 58°06' E 006°48'6 1.0
2017-Mar-27 08:29N 58°05' E 007°00'6 6.8
2017-Mar-27 07:33N 58°06' E 006°48'0 0.0
2017-Mar-27 06:33N 58°06' E 006°48'0 0.0
2017-Mar-27 05:33N 58°06' E 006°48'0 0.0
2017-Mar-27 04:33N 58°06' E 006°48'0 0.0
2017-Mar-27 03:33N 58°06' E 006°48'0 0.0
2017-Mar-27 02:33N 58°06' E 006°48'0 0.0
2017-Mar-27 01:33N 58°06' E 006°48'0 0.0
2017-Mar-27 00:33N 58°06' E 006°48'0 0.0
2017-Mar-26 23:33N 58°06' E 006°48'0 0.0
2017-Mar-26 22:33N 58°06' E 006°48'0 0.0
2017-Mar-26 21:33N 58°06' E 006°48'0 0.0
2017-Mar-26 20:33N 58°06' E 006°48'0 0.0
2017-Mar-26 19:33N 58°06' E 006°48'2 2.2
2017-Mar-26 18:33N 58°04' E 006°51'2 2.2
2017-Mar-26 17:33N 58°06' E 006°48'0 0.0
2017-Mar-26 16:33N 58°06' E 006°48'0 0.0
2017-Mar-26 15:33N 58°06' E 006°48'0 0.0
2017-Mar-26 14:34N 58°06' E 006°48'0 0.0
2017-Mar-26 13:34N 58°06' E 006°48'0 0.0
2017-Mar-26 12:34N 58°06' E 006°48'11 3.3
2017-Mar-26 09:06N 57°59' E 007°05'917.0
2017-Mar-26 08:33N 58°04' E 006°51'2 2.1
2017-Mar-26 07:33N 58°06' E 006°48'1 0.9
2017-Mar-26 06:33N 58°05' E 006°50'1 0.9
2017-Mar-26 05:33N 58°06' E 006°48'0 0.0
2017-Mar-26 04:33N 58°06' E 006°48'0 0.0
2017-Mar-26 03:33N 58°06' E 006°48'0 0.0
2017-Mar-26 02:33N 58°06' E 006°48'0 0.0
2017-Mar-26 01:34N 58°06' E 006°48'0 0.0
2017-Mar-26 00:33N 58°06' E 006°48'0 0.0
2017-Mar-25 23:33N 58°06' E 006°48'0 0.0
2017-Mar-25 22:33N 58°06' E 006°48'0 0.0
2017-Mar-25 21:33N 58°06' E 006°48'0 0.0
2017-Mar-25 20:33N 58°06' E 006°48'0 0.0
2017-Mar-25 19:33N 58°06' E 006°48'0 0.0
2017-Mar-25 18:33N 58°06' E 006°48'0 0.0
2017-Mar-25 17:33N 58°06' E 006°48'0 0.0
2017-Mar-25 16:33N 58°06' E 006°48'6 6.0
2017-Mar-25 15:33N 58°03' E 006°59'6 6.0
2017-Mar-25 14:33N 58°06' E 006°48'0 0.0
2017-Mar-25 13:33N 58°06' E 006°48'0 0.0
2017-Mar-25 12:33N 58°06' E 006°48'0 0.0
2017-Mar-25 11:33N 58°06' E 006°48'0 0.0
2017-Mar-25 10:33N 58°06' E 006°48'0 0.0
2017-Mar-25 09:33N 58°06' E 006°48'0 0.0
2017-Mar-25 08:33N 58°06' E 006°48'0 0.0
2017-Mar-25 07:33N 58°06' E 006°48'0 0.0
2017-Mar-25 06:33N 58°06' E 006°48'0 0.0
2017-Mar-25 05:33N 58°06' E 006°48'0 0.0
2017-Mar-25 04:33N 58°06' E 006°48'0 0.0
2017-Mar-25 03:33N 58°06' E 006°48'0 0.0
2017-Mar-25 02:33N 58°06' E 006°48'0 0.0
2017-Mar-25 01:33N 58°06' E 006°48'0 0.0
2017-Mar-25 00:33N 58°06' E 006°48'0 0.0
2017-Mar-24 23:33N 58°06' E 006°48'4 3.7
2017-Mar-24 22:33N 58°02' E 006°50'4 3.6
2017-Mar-24 21:33N 58°06' E 006°48'0 0.0
2017-Mar-24 20:33N 58°06' E 006°48'0 0.0
2017-Mar-24 19:33N 58°06' E 006°48'0 0.0
2017-Mar-24 18:33N 58°06' E 006°48'0 0.0
2017-Mar-24 17:33N 58°06' E 006°48'0 0.0
2017-Mar-24 16:34N 58°06' E 006°48'0 0.0
2017-Mar-24 15:33N 58°06' E 006°48'0 0.0
2017-Mar-24 14:33N 58°06' E 006°48'0 0.0
2017-Mar-24 13:33N 58°06' E 006°48'0 0.0
2017-Mar-24 12:33N 58°06' E 006°48'0 0.0
2017-Mar-24 11:31N 58°06' E 006°48'0 0.0
2017-Mar-24 10:33N 58°06' E 006°48'0 0.0
2017-Mar-24 09:33N 58°06' E 006°48'0 0.0
2017-Mar-24 08:32N 58°06' E 006°48'0 0.0
2017-Mar-24 07:31N 58°06' E 006°48'0 0.0
2017-Mar-24 06:32N 58°06' E 006°48'0 0.0
2017-Mar-24 05:32N 58°06' E 006°48'0 0.0
2017-Mar-24 04:31N 58°06' E 006°48'0 0.0
2017-Mar-24 03:33N 58°06' E 006°48'0 0.0
2017-Mar-24 02:31N 58°06' E 006°48'0 0.0
2017-Mar-24 01:33N 58°06' E 006°48'0 0.0
2017-Mar-24 00:33N 58°06' E 006°48'0 0.0
2017-Mar-23 23:32N 58°06' E 006°48'0 0.0
2017-Mar-23 22:31N 58°06' E 006°48'0 0.0
2017-Mar-23 21:32N 58°06' E 006°48'0 0.0
2017-Mar-23 20:33N 58°06' E 006°48'0 0.0
2017-Mar-23 19:32N 58°06' E 006°48'0 0.0
2017-Mar-23 18:33N 58°06' E 006°48'0 0.0
2017-Mar-23 17:32N 58°06' E 006°48'0 0.0
2017-Mar-23 16:31N 58°06' E 006°48'0 0.0
2017-Mar-23 15:33N 58°06' E 006°48'0 0.0
2017-Mar-23 14:32N 58°06' E 006°48'0 0.0
2017-Mar-23 13:33N 58°06' E 006°48'0 0.0
2017-Mar-23 12:32N 58°06' E 006°48'0 0.0
2017-Mar-23 11:33N 58°06' E 006°48'0 0.0
2017-Mar-23 10:33N 58°06' E 006°48'0 0.2
2017-Mar-23 09:33N 58°06' E 006°49'0 0.2
2017-Mar-23 08:32N 58°06' E 006°48'0 0.0
2017-Mar-23 07:32N 58°06' E 006°48'0 0.0
2017-Mar-23 06:33N 58°06' E 006°48'0 0.0
2017-Mar-23 05:31N 58°06' E 006°48'0 0.0
2017-Mar-23 04:32N 58°06' E 006°48'0 0.0
2017-Mar-23 03:31N 58°06' E 006°48'0 0.0
2017-Mar-23 02:32N 58°06' E 006°48'0 0.0
2017-Mar-23 01:32N 58°06' E 006°48'0 0.0
2017-Mar-23 00:33N 58°06' E 006°48'0 0.0
2017-Mar-22 23:33N 58°06' E 006°48'0 0.2
2017-Mar-22 22:33N 58°06' E 006°49'0 0.2
2017-Mar-22 21:33N 58°06' E 006°48'0 0.0
2017-Mar-22 20:32N 58°06' E 006°48'0 0.0
2017-Mar-22 19:33N 58°06' E 006°48'0 0.0
2017-Mar-22 18:33N 58°06' E 006°48'0 0.0
2017-Mar-22 17:32N 58°06' E 006°48'0 0.0
2017-Mar-22 16:33N 58°06' E 006°48'0 0.0
2017-Mar-22 15:33N 58°06' E 006°48'0 0.0
2017-Mar-22 14:31N 58°06' E 006°48'0 0.0
2017-Mar-22 13:33N 58°06' E 006°48'0 0.0
2017-Mar-22 12:31N 58°06' E 006°48'0 0.0
2017-Mar-22 11:33N 58°06' E 006°48'0 0.0
2017-Mar-22 10:32N 58°06' E 006°48'0 0.0
2017-Mar-22 09:33N 58°06' E 006°48'0 0.0
2017-Mar-22 08:33N 58°06' E 006°48'0 0.0
2017-Mar-22 07:32N 58°06' E 006°48'0 0.0
2017-Mar-22 06:32N 58°06' E 006°48'0 0.0
2017-Mar-22 05:33N 58°06' E 006°48'0 0.0
2017-Mar-22 04:32N 58°06' E 006°48'0 0.0
2017-Mar-22 03:31N 58°06' E 006°48'0 0.0
2017-Mar-22 02:32N 58°06' E 006°48'0 0.0
2017-Mar-22 01:32N 58°06' E 006°48'0 0.0
2017-Mar-22 00:33N 58°06' E 006°48'0 0.0
2017-Mar-21 23:32N 58°06' E 006°48'0 0.0
2017-Mar-21 22:33N 58°06' E 006°48'0 0.0
2017-Mar-21 21:32N 58°06' E 006°48'0 0.0
2017-Mar-21 20:33N 58°06' E 006°48'0 0.0
2017-Mar-21 19:32N 58°06' E 006°48'0 0.0
2017-Mar-21 18:33N 58°06' E 006°48'0 0.0
2017-Mar-21 17:32N 58°06' E 006°48'0 0.0
2017-Mar-21 16:32N 58°06' E 006°48'0 0.1
2017-Mar-21 15:33N 58°06' E 006°49'0 0.1
2017-Mar-21 14:33N 58°06' E 006°48'0 0.0
2017-Mar-21 13:32N 58°06' E 006°48'0 0.0
2017-Mar-21 12:32N 58°06' E 006°48'0 0.0
2017-Mar-21 11:32N 58°06' E 006°48'0 0.0
2017-Mar-21 10:32N 58°06' E 006°48'0 0.0
2017-Mar-21 09:33N 58°06' E 006°48'0 0.0
2017-Mar-21 08:32N 58°06' E 006°48'0 0.0
2017-Mar-21 07:32N 58°06' E 006°48'1 0.7
2017-Mar-21 06:32N 58°05' E 006°50'1 0.7
2017-Mar-21 05:33N 58°06' E 006°48'0 0.0
2017-Mar-21 04:32N 58°06' E 006°48'0 0.0
2017-Mar-21 03:33N 58°06' E 006°48'0 0.0
2017-Mar-21 02:32N 58°06' E 006°48'0 0.0
2017-Mar-21 01:32N 58°06' E 006°48'0 0.0
2017-Mar-21 00:32N 58°06' E 006°48'0 0.0
2017-Mar-20 23:32N 58°06' E 006°48'0 0.0
2017-Mar-20 22:32N 58°06' E 006°48'0 0.0
2017-Mar-20 21:34N 58°06' E 006°48'0 0.0
2017-Mar-20 20:33N 58°06' E 006°48'0 0.0
2017-Mar-20 19:32N 58°06' E 006°48'0 0.0
2017-Mar-20 18:33N 58°06' E 006°48'0 0.0
2017-Mar-20 17:33N 58°06' E 006°48'0 0.0
2017-Mar-20 16:33N 58°06' E 006°48'0 0.0
2017-Mar-20 15:33N 58°06' E 006°48'0 0.0
2017-Mar-20 14:33N 58°06' E 006°48'0 0.0
2017-Mar-20 13:33N 58°06' E 006°48'0 0.0
2017-Mar-20 12:33N 58°06' E 006°48'0 0.0
2017-Mar-20 11:32N 58°06' E 006°48'0 0.0
2017-Mar-20 10:30N 58°06' E 006°48'0 0.0
2017-Mar-20 09:32N 58°06' E 006°48'  
Track history (hours):
 
Tides and Currents Weather Stations Pressure Air Temp Water Temp Dewpoint Dewpoint Depression Visibility Wind Speed Wind Dir Waves Ship Positions

Oscar Tybring IV

Last reported at 2017-Mar-30 08:33 UTC. Time now 2017-Mar-30 08:59 UTC.
Position N 58°06' E 006°48'.

Length 20 m.

Type: SAR. MMSI: 257231500.

Date/timePositionNaut miles runAvg speedWind from/ knotsBaromVisibWave heightAir tempDewpointWater temp
2017-Mar-30 08:33N 58°06' E 006°48'0 0.0
2017-Mar-30 07:33N 58°06' E 006°48'0 0.0
2017-Mar-30 06:34N 58°06' E 006°48'0 0.0
2017-Mar-30 05:34N 58°06' E 006°48'0 0.0
2017-Mar-30 04:33N 58°06' E 006°48'0 0.0
2017-Mar-30 03:34N 58°06' E 006°48'0 0.0
2017-Mar-30 02:34N 58°06' E 006°48'0 0.0
2017-Mar-30 01:33N 58°06' E 006°48'0 0.0
2017-Mar-30 00:33N 58°06' E 006°48'0 0.0
2017-Mar-29 23:33N 58°06' E 006°48'0 0.0
2017-Mar-29 22:34N 58°06' E 006°48'0 0.0
2017-Mar-29 21:34N 58°06' E 006°48'0 0.0
2017-Mar-29 20:33N 58°06' E 006°48'0 0.0
2017-Mar-29 19:34N 58°06' E 006°48'0 0.0
2017-Mar-29 18:34N 58°06' E 006°48'0 0.0
2017-Mar-29 17:33N 58°06' E 006°48'2 1.9
2017-Mar-29 16:33N 58°04' E 006°51'4 4.4
2017-Mar-29 15:33N 58°03' E 006°59'6 6.3
2017-Mar-29 14:33N 58°06' E 006°48'0 0.0
2017-Mar-29 13:34N 58°06' E 006°48'0 0.0
2017-Mar-29 12:33N 58°06' E 006°48'3 2.7
2017-Mar-29 11:34N 58°03' E 006°51'3 2.7
2017-Mar-29 10:33N 58°06' E 006°48'0 0.0
2017-Mar-29 09:33N 58°06' E 006°48'0 0.0
2017-Mar-29 08:33N 58°06' E 006°48'0 0.0
2017-Mar-29 07:33N 58°06' E 006°48'0 0.0
2017-Mar-29 06:33N 58°06' E 006°48'0 0.0
2017-Mar-29 05:33N 58°06' E 006°48'0 0.0
2017-Mar-29 04:33N 58°06' E 006°48'0 0.0
2017-Mar-29 03:33N 58°06' E 006°48'0 0.0
2017-Mar-29 02:33N 58°06' E 006°48'1 1.3
2017-Mar-29 01:34N 58°05' E 006°50'1 1.3
2017-Mar-29 00:33N 58°06' E 006°48'0 0.0
2017-Mar-28 23:33N 58°06' E 006°48'0 0.0
2017-Mar-28 22:33N 58°06' E 006°48'0 0.0
2017-Mar-28 21:33N 58°06' E 006°48'0 0.0
2017-Mar-28 20:33N 58°06' E 006°48'0 0.0
2017-Mar-28 19:33N 58°06' E 006°48'0 0.0
2017-Mar-28 18:33N 58°06' E 006°48'0 0.0
2017-Mar-28 17:33N 58°06' E 006°48'0 0.0
2017-Mar-28 16:33N 58°06' E 006°48'0 0.0
2017-Mar-28 15:33N 58°06' E 006°48'0 0.0
2017-Mar-28 14:33N 58°06' E 006°48'0 0.0
2017-Mar-28 13:33N 58°06' E 006°48'0 0.0
2017-Mar-28 12:33N 58°06' E 006°48'0 0.0
2017-Mar-28 11:33N 58°06' E 006°48'0 0.0
2017-Mar-28 10:33N 58°06' E 006°48'0 0.0
2017-Mar-28 09:33N 58°06' E 006°48'0 0.0
2017-Mar-28 08:33N 58°06' E 006°48'0 0.0
2017-Mar-28 07:33N 58°06' E 006°48'0 0.0
2017-Mar-28 06:33N 58°06' E 006°48'0 0.0
2017-Mar-28 05:33N 58°06' E 006°48'0 0.0
2017-Mar-28 04:33N 58°06' E 006°48'0 0.0
2017-Mar-28 03:33N 58°06' E 006°48'0 0.0
2017-Mar-28 02:33N 58°06' E 006°48'0 0.0
2017-Mar-28 01:33N 58°06' E 006°48'0 0.0
2017-Mar-28 00:33N 58°06' E 006°48'0 0.0
2017-Mar-27 23:33N 58°06' E 006°48'0 0.0
2017-Mar-27 22:33N 58°06' E 006°48'0 0.0
2017-Mar-27 21:33N 58°06' E 006°48'0 0.0
2017-Mar-27 20:33N 58°06' E 006°48'2 1.6
2017-Mar-27 19:33N 58°05' E 006°51'8 8.1
2017-Mar-27 18:32N 58°06' E 006°35'0 0.0
2017-Mar-27 17:33N 58°06' E 006°35'1 1.0
2017-Mar-27 16:34N 58°05' E 006°34'8 7.7
2017-Mar-27 15:33N 58°06' E 006°48'0 0.0
2017-Mar-27 14:33N 58°06' E 006°48'6 1.0
2017-Mar-27 08:29N 58°05' E 007°00'6 6.8
2017-Mar-27 07:33N 58°06' E 006°48'0 0.0
2017-Mar-27 06:33N 58°06' E 006°48'0 0.0
2017-Mar-27 05:33N 58°06' E 006°48'0 0.0
2017-Mar-27 04:33N 58°06' E 006°48'0 0.0
2017-Mar-27 03:33N 58°06' E 006°48'0 0.0
2017-Mar-27 02:33N 58°06' E 006°48'0 0.0
2017-Mar-27 01:33N 58°06' E 006°48'0 0.0
2017-Mar-27 00:33N 58°06' E 006°48'0 0.0
2017-Mar-26 23:33N 58°06' E 006°48'0 0.0
2017-Mar-26 22:33N 58°06' E 006°48'0 0.0
2017-Mar-26 21:33N 58°06' E 006°48'0 0.0
2017-Mar-26 20:33N 58°06' E 006°48'0 0.0
2017-Mar-26 19:33N 58°06' E 006°48'2 2.2
2017-Mar-26 18:33N 58°04' E 006°51'2 2.2
2017-Mar-26 17:33N 58°06' E 006°48'0 0.0
2017-Mar-26 16:33N 58°06' E 006°48'0 0.0
2017-Mar-26 15:33N 58°06' E 006°48'0 0.0
2017-Mar-26 14:34N 58°06' E 006°48'0 0.0
2017-Mar-26 13:34N 58°06' E 006°48'0 0.0
2017-Mar-26 12:34N 58°06' E 006°48'11 3.3
2017-Mar-26 09:06N 57°59' E 007°05'917.0
2017-Mar-26 08:33N 58°04' E 006°51'2 2.1
2017-Mar-26 07:33N 58°06' E 006°48'1 0.9
2017-Mar-26 06:33N 58°05' E 006°50'1 0.9
2017-Mar-26 05:33N 58°06' E 006°48'0 0.0
2017-Mar-26 04:33N 58°06' E 006°48'0 0.0
2017-Mar-26 03:33N 58°06' E 006°48'0 0.0
2017-Mar-26 02:33N 58°06' E 006°48'0 0.0
2017-Mar-26 01:34N 58°06' E 006°48'0 0.0
2017-Mar-26 00:33N 58°06' E 006°48'0 0.0
2017-Mar-25 23:33N 58°06' E 006°48'0 0.0
2017-Mar-25 22:33N 58°06' E 006°48'0 0.0
2017-Mar-25 21:33N 58°06' E 006°48'0 0.0
2017-Mar-25 20:33N 58°06' E 006°48'0 0.0
2017-Mar-25 19:33N 58°06' E 006°48'0 0.0
2017-Mar-25 18:33N 58°06' E 006°48'0 0.0
2017-Mar-25 17:33N 58°06' E 006°48'0 0.0
2017-Mar-25 16:33N 58°06' E 006°48'6 6.0
2017-Mar-25 15:33N 58°03' E 006°59'6 6.0
2017-Mar-25 14:33N 58°06' E 006°48'0 0.0
2017-Mar-25 13:33N 58°06' E 006°48'0 0.0
2017-Mar-25 12:33N 58°06' E 006°48'0 0.0
2017-Mar-25 11:33N 58°06' E 006°48'0 0.0
2017-Mar-25 10:33N 58°06' E 006°48'0 0.0
2017-Mar-25 09:33N 58°06' E 006°48'0 0.0
2017-Mar-25 08:33N 58°06' E 006°48'0 0.0
2017-Mar-25 07:33N 58°06' E 006°48'0 0.0
2017-Mar-25 06:33N 58°06' E 006°48'0 0.0
2017-Mar-25 05:33N 58°06' E 006°48'0 0.0
2017-Mar-25 04:33N 58°06' E 006°48'0 0.0
2017-Mar-25 03:33N 58°06' E 006°48'0 0.0
2017-Mar-25 02:33N 58°06' E 006°48'0 0.0
2017-Mar-25 01:33N 58°06' E 006°48'0 0.0
2017-Mar-25 00:33N 58°06' E 006°48'0 0.0
2017-Mar-24 23:33N 58°06' E 006°48'4 3.7
2017-Mar-24 22:33N 58°02' E 006°50'4 3.6
2017-Mar-24 21:33N 58°06' E 006°48'0 0.0
2017-Mar-24 20:33N 58°06' E 006°48'0 0.0
2017-Mar-24 19:33N 58°06' E 006°48'0 0.0
2017-Mar-24 18:33N 58°06' E 006°48'0 0.0
2017-Mar-24 17:33N 58°06' E 006°48'0 0.0
2017-Mar-24 16:34N 58°06' E 006°48'0 0.0
2017-Mar-24 15:33N 58°06' E 006°48'0 0.0
2017-Mar-24 14:33N 58°06' E 006°48'0 0.0
2017-Mar-24 13:33N 58°06' E 006°48'0 0.0
2017-Mar-24 12:33N 58°06' E 006°48'0 0.0
2017-Mar-24 11:31N 58°06' E 006°48'0 0.0
2017-Mar-24 10:33N 58°06' E 006°48'0 0.0
2017-Mar-24 09:33N 58°06' E 006°48'0 0.0
2017-Mar-24 08:32N 58°06' E 006°48'0 0.0
2017-Mar-24 07:31N 58°06' E 006°48'0 0.0
2017-Mar-24 06:32N 58°06' E 006°48'0 0.0
2017-Mar-24 05:32N 58°06' E 006°48'0 0.0
2017-Mar-24 04:31N 58°06' E 006°48'0 0.0
2017-Mar-24 03:33N 58°06' E 006°48'0 0.0
2017-Mar-24 02:31N 58°06' E 006°48'0 0.0
2017-Mar-24 01:33N 58°06' E 006°48'0 0.0
2017-Mar-24 00:33N 58°06' E 006°48'0 0.0
2017-Mar-23 23:32N 58°06' E 006°48'0 0.0
2017-Mar-23 22:31N 58°06' E 006°48'0 0.0
2017-Mar-23 21:32N 58°06' E 006°48'0 0.0
2017-Mar-23 20:33N 58°06' E 006°48'0 0.0
2017-Mar-23 19:32N 58°06' E 006°48'0 0.0
2017-Mar-23 18:33N 58°06' E 006°48'0 0.0
2017-Mar-23 17:32N 58°06' E 006°48'0 0.0
2017-Mar-23 16:31N 58°06' E 006°48'0 0.0
2017-Mar-23 15:33N 58°06' E 006°48'0 0.0
2017-Mar-23 14:32N 58°06' E 006°48'0 0.0
2017-Mar-23 13:33N 58°06' E 006°48'0 0.0
2017-Mar-23 12:32N 58°06' E 006°48'0 0.0
2017-Mar-23 11:33N 58°06' E 006°48'0 0.0
2017-Mar-23 10:33N 58°06' E 006°48'0 0.2
2017-Mar-23 09:33N 58°06' E 006°49'0 0.2
2017-Mar-23 08:32N 58°06' E 006°48'0 0.0
2017-Mar-23 07:32N 58°06' E 006°48'0 0.0
2017-Mar-23 06:33N 58°06' E 006°48'0 0.0
2017-Mar-23 05:31N 58°06' E 006°48'0 0.0
2017-Mar-23 04:32N 58°06' E 006°48'0 0.0
2017-Mar-23 03:31N 58°06' E 006°48'0 0.0
2017-Mar-23 02:32N 58°06' E 006°48'0 0.0
2017-Mar-23 01:32N 58°06' E 006°48'0 0.0
2017-Mar-23 00:33N 58°06' E 006°48'0 0.0
2017-Mar-22 23:33N 58°06' E 006°48'0 0.2
2017-Mar-22 22:33N 58°06' E 006°49'0 0.2
2017-Mar-22 21:33N 58°06' E 006°48'0 0.0
2017-Mar-22 20:32N 58°06' E 006°48'0 0.0
2017-Mar-22 19:33N 58°06' E 006°48'0 0.0
2017-Mar-22 18:33N 58°06' E 006°48'0 0.0
2017-Mar-22 17:32N 58°06' E 006°48'0 0.0
2017-Mar-22 16:33N 58°06' E 006°48'0 0.0
2017-Mar-22 15:33N 58°06' E 006°48'0 0.0
2017-Mar-22 14:31N 58°06' E 006°48'0 0.0
2017-Mar-22 13:33N 58°06' E 006°48'0 0.0
2017-Mar-22 12:31N 58°06' E 006°48'0 0.0
2017-Mar-22 11:33N 58°06' E 006°48'0 0.0
2017-Mar-22 10:32N 58°06' E 006°48'0 0.0
2017-Mar-22 09:33N 58°06' E 006°48'0 0.0
2017-Mar-22 08:33N 58°06' E 006°48'0 0.0
2017-Mar-22 07:32N 58°06' E 006°48'0 0.0
2017-Mar-22 06:32N 58°06' E 006°48'0 0.0
2017-Mar-22 05:33N 58°06' E 006°48'0 0.0
2017-Mar-22 04:32N 58°06' E 006°48'0 0.0
2017-Mar-22 03:31N 58°06' E 006°48'0 0.0
2017-Mar-22 02:32N 58°06' E 006°48'0 0.0
2017-Mar-22 01:32N 58°06' E 006°48'0 0.0
2017-Mar-22 00:33N 58°06' E 006°48'0 0.0
2017-Mar-21 23:32N 58°06' E 006°48'0 0.0
2017-Mar-21 22:33N 58°06' E 006°48'0 0.0
2017-Mar-21 21:32N 58°06' E 006°48'0 0.0
2017-Mar-21 20:33N 58°06' E 006°48'0 0.0
2017-Mar-21 19:32N 58°06' E 006°48'0 0.0
2017-Mar-21 18:33N 58°06' E 006°48'0 0.0
2017-Mar-21 17:32N 58°06' E 006°48'0 0.0
2017-Mar-21 16:32N 58°06' E 006°48'0 0.1
2017-Mar-21 15:33N 58°06' E 006°49'0 0.1
2017-Mar-21 14:33N 58°06' E 006°48'0 0.0
2017-Mar-21 13:32N 58°06' E 006°48'0 0.0
2017-Mar-21 12:32N 58°06' E 006°48'0 0.0
2017-Mar-21 11:32N 58°06' E 006°48'0 0.0
2017-Mar-21 10:32N 58°06' E 006°48'0 0.0
2017-Mar-21 09:33N 58°06' E 006°48'0 0.0
2017-Mar-21 08:32N 58°06' E 006°48'0 0.0
2017-Mar-21 07:32N 58°06' E 006°48'1 0.7
2017-Mar-21 06:32N 58°05' E 006°50'1 0.7
2017-Mar-21 05:33N 58°06' E 006°48'0 0.0
2017-Mar-21 04:32N 58°06' E 006°48'0 0.0
2017-Mar-21 03:33N 58°06' E 006°48'0 0.0
2017-Mar-21 02:32N 58°06' E 006°48'0 0.0
2017-Mar-21 01:32N 58°06' E 006°48'0 0.0
2017-Mar-21 00:32N 58°06' E 006°48'0 0.0
2017-Mar-20 23:32N 58°06' E 006°48'0 0.0
2017-Mar-20 22:32N 58°06' E 006°48'0 0.0
2017-Mar-20 21:34N 58°06' E 006°48'0 0.0
2017-Mar-20 20:33N 58°06' E 006°48'0 0.0
2017-Mar-20 19:32N 58°06' E 006°48'0 0.0
2017-Mar-20 18:33N 58°06' E 006°48'0 0.0
2017-Mar-20 17:33N 58°06' E 006°48'0 0.0
2017-Mar-20 16:33N 58°06' E 006°48'0 0.0
2017-Mar-20 15:33N 58°06' E 006°48'0 0.0
2017-Mar-20 14:33N 58°06' E 006°48'0 0.0
2017-Mar-20 13:33N 58°06' E 006°48'0 0.0
2017-Mar-20 12:33N 58°06' E 006°48'0 0.0
2017-Mar-20 11:32N 58°06' E 006°48'0 0.0
2017-Mar-20 10:30N 58°06' E 006°48'0 0.0
2017-Mar-20 09:32N 58°06' E 006°48'  

Dump ship's entire track history